Stockdale, TX (78160)

8:18 AM CST on February 27, 2015 (GMT -0600)
Lake Valley Dr. | Change Station
CLOSE
Current Station
Personal Weather Station
Location: La Vernia, TX
Elevation: 597 ft
Nearby Weather Stations

Elev 597 ft 29.35 °N, 98.04 °W | Updated 11 minutes ago

Overcast
Overcast
35.9 °F
Feels Like 31 °F
N
6.0
Wind Variable Wind from ENE
Gusts 11.0 mph

Today
High -- | Low -- °F
--% Chance of Precip.
Yesterday
High -- | Low -- °F
Precip. -- in
6:59 AM 6:29 PM
Waxing Gibbous, 69% visible
Pressure 30.34 in
Visibility 10.0 miles
Clouds Overcast 2900 ft
Windchill 31 °F
Dew Point 27 °F
Humidity 70%
Rainfall 0.00 in
Snow Depth Not available.
UV 0 out of 12
Pollen 8.30 out of 12
Air Quality Not available.
Flu Activity Not available.
SPECI KRND 271413Z 03009KT 10SM OVC029 02/M06 A3034 RMK AO2A

More Conditions Fewer Conditions

Pressure 30.34 in
Visibility 10.0 miles
Clouds Overcast 2900 ft
Windchill 31 °F
Dew Point 27 °F
Humidity 70%
Rainfall 0.00 in
Snow Depth Not available.
UV 0 out of 12
Pollen 8.30 out of 12
Air Quality Not available.
Flu Activity Not available.
SPECI KRND 271413Z 03009KT 10SM OVC029 02/M06 A3034 RMK AO2A

More Conditions Fewer Conditions

10-Day Weather Forecast

Almanac

Astronomy

Feb. 27, 2015 Rise Set
Actual Time
Civil Twilight
Nautical Twilight
Astronomical Twilight
Moon
Length of Visible Light
Length of Day
Tomorrow will be .
, % of the Moon is Illuminated

Today's Extremes

State Highs State Lows

Community

WunderPhotos

Upload Photos

1,800,680 photos uploaded!

WunderBlogs® & News

Nearby

Air Quality

  Air Quality AQ Index Pollutant
Not available.

Snow Depth

Station Depth Elevation

Earthquake Activity

City Distance Mag. Time & Date
Minimum magnitude displayed is 2.5.

Coastal Water Temperatures

Place Temperature

Nearby Weather Stations